createdAt,value
2022-10-31T00:01:30.441Z,11.80
2022-10-31T00:08:58.582Z,11.70
2022-10-31T00:11:27.272Z,11.70
2022-10-31T00:16:26.118Z,15.70
2022-10-31T00:18:55.862Z,11.70
2022-10-31T00:21:25.987Z,11.60
2022-10-31T00:26:23.351Z,12.50
2022-10-31T00:36:19.339Z,11.50
2022-10-31T00:38:49.762Z,11.60
2022-10-31T00:41:19.938Z,11.60
2022-10-31T00:51:13.526Z,11.60
2022-10-31T01:01:08.335Z,11.80
2022-10-31T01:03:36.980Z,11.70
2022-10-31T01:06:07.301Z,11.70
2022-10-31T01:11:09.709Z,11.70
2022-10-31T01:13:39.447Z,11.60
2022-10-31T01:16:10.444Z,11.60
2022-10-31T01:21:09.949Z,11.60
2022-10-31T01:23:38.626Z,11.60
2022-10-31T01:26:13.555Z,11.60
2022-10-31T01:28:48.200Z,11.40
2022-10-31T01:36:16.346Z,11.40
2022-10-31T01:41:14.367Z,11.40
2022-10-31T01:43:51.013Z,11.50
2022-10-31T01:46:22.831Z,11.50
2022-10-31T01:51:21.852Z,11.60
2022-10-31T01:53:52.249Z,11.70
2022-10-31T02:03:48.903Z,11.80
2022-10-31T02:06:27.807Z,11.70
2022-10-31T02:11:25.746Z,11.70
2022-10-31T02:21:23.808Z,11.50
2022-10-31T02:24:28.949Z,11.50
2022-10-31T02:27:13.482Z,11.50
2022-10-31T02:30:08.112Z,11.40
2022-10-31T02:33:12.639Z,11.40
2022-10-31T02:35:49.946Z,11.30
2022-10-31T02:38:32.164Z,11.30
2022-10-31T02:41:12.157Z,11.30
2022-10-31T02:43:48.276Z,11.40
2022-10-31T02:46:21.511Z,11.40
2022-10-31T02:48:53.451Z,11.40
2022-10-31T02:51:22.214Z,11.30
2022-10-31T02:53:50.347Z,11.40
2022-10-31T02:56:20.253Z,11.40
2022-10-31T02:58:51.847Z,11.40
2022-10-31T03:01:39.598Z,11.40
2022-10-31T03:04:41.119Z,11.30
2022-10-31T03:07:17.831Z,11.30
2022-10-31T03:09:51.181Z,11.30
2022-10-31T03:12:28.717Z,11.20
2022-10-31T03:15:04.413Z,11.30
2022-10-31T03:17:39.680Z,11.30
2022-10-31T03:20:12.524Z,11.40
2022-10-31T03:22:43.019Z,11.40
2022-10-31T03:25:14.565Z,11.40
2022-10-31T03:27:44.997Z,11.40
2022-10-31T03:30:14.256Z,11.40
2022-10-31T03:32:46.166Z,11.30
2022-10-31T03:35:18.767Z,11.30
2022-10-31T03:40:19.843Z,11.30
2022-10-31T03:42:54.470Z,11.30
2022-10-31T03:45:26.289Z,11.10
2022-10-31T03:47:55.900Z,11.00
2022-10-31T03:50:28.722Z,11.00
2022-10-31T03:53:02.889Z,10.90
2022-10-31T03:55:37.705Z,10.90
2022-10-31T03:58:10.057Z,10.90
2022-10-31T04:00:42.592Z,10.90
2022-10-31T04:03:15.607Z,10.90
2022-10-31T04:05:49.250Z,10.80
2022-10-31T04:08:21.307Z,10.80
2022-10-31T04:10:52.073Z,10.80
2022-10-31T04:13:24.274Z,10.80
2022-10-31T04:23:22.501Z,10.90
2022-10-31T04:30:47.584Z,10.90
2022-10-31T04:35:44.152Z,10.80
2022-10-31T04:38:13.771Z,10.80
2022-10-31T04:40:41.913Z,10.80
2022-10-31T04:50:35.588Z,10.50
2022-10-31T04:55:33.575Z,10.40
2022-10-31T05:03:00.780Z,10.20
2022-10-31T05:05:31.176Z,10.20
2022-10-31T05:10:29.964Z,10.10
2022-10-31T05:13:01.633Z,10.10
2022-10-31T05:15:31.160Z,10.10
2022-10-31T05:20:30.770Z,10.10
2022-10-31T05:25:30.095Z,10.10
2022-10-31T05:30:31.825Z,10.00
2022-10-31T05:35:31.678Z,9.90
2022-10-31T05:40:29.953Z,9.90
2022-10-31T05:48:00.114Z,9.80
2022-10-31T05:50:30.919Z,9.80
2022-10-31T05:53:01.490Z,9.80
2022-10-31T06:00:33.338Z,9.70
2022-10-31T06:13:02.910Z,9.80
2022-10-31T06:15:34.041Z,9.80
2022-10-31T06:30:42.679Z,10.10
2022-10-31T06:43:20.850Z,10.10
2022-10-31T06:50:58.588Z,10.30
2022-10-31T06:53:30.831Z,10.30
2022-10-31T06:58:36.416Z,10.40
2022-10-31T07:06:10.002Z,10.60
2022-10-31T07:11:09.782Z,10.70
2022-10-31T07:13:40.701Z,10.70
2022-10-31T07:16:14.614Z,10.80
2022-10-31T07:18:46.109Z,10.80
2022-10-31T07:23:42.777Z,11.00
2022-10-31T07:26:13.577Z,11.10
2022-10-31T07:28:45.110Z,11.30
2022-10-31T07:36:15.056Z,11.50
2022-10-31T07:38:45.528Z,11.50
2022-10-31T07:41:23.361Z,11.70
2022-10-31T07:54:13.182Z,12.00
2022-10-31T07:59:16.458Z,12.10
2022-10-31T08:04:12.951Z,12.30
2022-10-31T08:17:31.243Z,14.90
2022-10-31T08:21:05.316Z,12.80
2022-10-31T08:26:02.552Z,13.00
2022-10-31T08:31:02.050Z,13.20
2022-10-31T08:36:00.326Z,13.30
2022-10-31T08:38:28.731Z,13.30
2022-10-31T08:43:25.585Z,13.50
2022-10-31T08:45:55.987Z,13.50
2022-10-31T08:48:25.610Z,13.70
2022-10-31T08:50:53.879Z,14.20
2022-10-31T08:53:23.566Z,13.70
2022-10-31T08:55:54.992Z,13.80
2022-10-31T08:58:28.367Z,13.90
2022-10-31T09:01:04.910Z,14.00
2022-10-31T09:30:33.041Z,15.10
2022-10-31T09:58:04.597Z,16.00
2022-10-31T10:00:35.527Z,17.70
2022-10-31T10:03:26.870Z,15.90
2022-10-31T10:06:14.343Z,17.20
2022-10-31T10:08:45.353Z,16.00
2022-10-31T10:11:46.260Z,16.10
2022-10-31T10:14:32.729Z,16.30
2022-10-31T10:17:14.442Z,16.60
2022-10-31T10:20:03.661Z,16.40
2022-10-31T10:22:39.728Z,16.70
2022-10-31T10:25:19.724Z,16.80
2022-10-31T10:28:03.291Z,17.00
2022-10-31T10:30:37.299Z,17.10
2022-10-31T10:33:10.674Z,17.10
2022-10-31T10:35:44.455Z,17.20
2022-10-31T10:38:19.774Z,18.00
2022-10-31T10:40:55.081Z,17.40
2022-10-31T10:43:32.296Z,17.70
2022-10-31T10:46:37.542Z,17.70
2022-10-31T10:49:15.677Z,17.80
2022-10-31T10:52:13.238Z,18.00
2022-10-31T10:54:59.956Z,20.50
2022-10-31T10:57:55.200Z,18.10
2022-10-31T11:00:30.019Z,18.20
2022-10-31T11:05:39.131Z,18.20
2022-10-31T11:13:22.862Z,18.30
2022-10-31T11:15:59.003Z,18.30
2022-10-31T11:18:29.293Z,18.30
2022-10-31T11:20:59.518Z,18.40
2022-10-31T11:23:30.161Z,18.60
2022-10-31T11:26:01.268Z,18.50
2022-10-31T11:28:33.350Z,18.70
2022-10-31T11:31:10.267Z,18.80
2022-10-31T11:33:42.257Z,18.90
2022-10-31T11:36:21.859Z,19.00
2022-10-31T11:38:51.282Z,19.00
2022-10-31T11:41:21.934Z,18.90
2022-10-31T11:43:54.209Z,19.10
2022-10-31T11:46:49.923Z,19.20
2022-10-31T11:49:25.714Z,21.40
2022-10-31T11:52:10.725Z,19.50
2022-10-31T11:54:52.957Z,19.50
2022-10-31T11:57:29.899Z,19.80
2022-10-31T12:00:00.358Z,19.70
2022-10-31T12:02:30.319Z,19.90
2022-10-31T12:05:09.722Z,19.80
2022-10-31T12:10:14.357Z,19.80
2022-10-31T12:16:11.471Z,19.60
2022-10-31T12:19:01.928Z,19.50
2022-10-31T12:21:47.852Z,19.40
2022-10-31T12:24:34.200Z,19.40
2022-10-31T12:27:14.978Z,19.20
2022-10-31T12:30:10.404Z,19.20
2022-10-31T12:33:06.036Z,19.40
2022-10-31T12:35:48.037Z,19.00
2022-10-31T12:38:42.603Z,19.40
2022-10-31T12:41:30.967Z,19.10
2022-10-31T12:44:05.741Z,19.10
2022-10-31T12:46:57.867Z,19.10
2022-10-31T12:49:44.105Z,19.10
2022-10-31T12:52:32.251Z,20.40
2022-10-31T12:55:15.129Z,19.50
2022-10-31T12:58:01.962Z,19.70
2022-10-31T13:00:34.402Z,19.80
2022-10-31T13:03:17.815Z,21.50
2022-10-31T13:05:49.077Z,20.00
2022-10-31T13:09:10.394Z,20.00
2022-10-31T13:22:05.051Z,20.70
2022-10-31T13:30:31.969Z,21.00
2022-10-31T13:39:51.253Z,20.60
2022-10-31T13:45:35.414Z,20.30
2022-10-31T13:48:24.695Z,20.00
2022-10-31T14:00:37.365Z,19.30
2022-10-31T14:05:38.908Z,19.20
2022-10-31T14:08:18.853Z,18.90
2022-10-31T14:10:51.606Z,18.90
2022-10-31T14:13:24.206Z,18.90
2022-10-31T14:15:59.454Z,18.90
2022-10-31T14:18:33.443Z,18.90
2022-10-31T14:21:01.543Z,18.90
2022-10-31T14:23:41.643Z,19.20
2022-10-31T14:26:34.441Z,20.00
2022-10-31T14:29:04.836Z,20.40
2022-10-31T14:31:40.709Z,20.40
2022-10-31T14:34:23.807Z,20.30
2022-10-31T14:37:12.631Z,20.10
2022-10-31T14:39:47.640Z,19.70
2022-10-31T14:42:29.834Z,19.30
2022-10-31T14:45:20.213Z,18.60
2022-10-31T14:48:06.932Z,19.10
2022-10-31T14:50:50.468Z,18.80
2022-10-31T14:53:24.523Z,18.70
2022-10-31T14:55:55.716Z,18.70
2022-10-31T14:58:29.233Z,18.70
2022-10-31T15:00:59.366Z,18.70
2022-10-31T15:03:33.154Z,18.60
2022-10-31T15:06:05.688Z,18.40
2022-10-31T15:08:37.640Z,18.40
2022-10-31T15:11:12.697Z,18.00
2022-10-31T15:13:45.790Z,18.00
2022-10-31T15:16:16.038Z,18.10
2022-10-31T15:18:57.025Z,17.90
2022-10-31T15:21:27.269Z,17.80
2022-10-31T15:23:57.946Z,20.90
2022-10-31T15:26:41.733Z,17.70
2022-10-31T15:29:15.492Z,17.60
2022-10-31T15:31:55.425Z,18.00
2022-10-31T15:34:29.871Z,17.30
2022-10-31T15:41:58.246Z,17.30
2022-10-31T15:44:28.887Z,17.20
2022-10-31T15:46:58.906Z,17.10
2022-10-31T15:49:37.339Z,17.10
2022-10-31T15:52:10.220Z,17.00
2022-10-31T15:54:46.727Z,16.90
2022-10-31T15:59:47.026Z,16.80
2022-10-31T16:02:16.511Z,16.60
2022-10-31T16:09:57.342Z,16.40
2022-10-31T16:12:27.422Z,16.40
2022-10-31T16:14:57.229Z,16.20
2022-10-31T16:17:27.736Z,16.20
2022-10-31T16:20:00.935Z,16.10
2022-10-31T16:22:31.751Z,16.00
2022-10-31T16:25:07.043Z,16.00
2022-10-31T16:27:37.446Z,15.90
2022-10-31T16:30:21.728Z,15.80
2022-10-31T16:32:59.140Z,15.80
2022-10-31T16:35:56.017Z,15.70
2022-10-31T16:41:03.644Z,15.60
2022-10-31T16:46:00.069Z,15.50
2022-10-31T16:55:59.008Z,15.30
2022-10-31T16:58:30.665Z,15.20
2022-10-31T17:00:59.324Z,15.20
2022-10-31T17:10:56.750Z,14.90
2022-10-31T17:13:27.653Z,14.80
2022-10-31T17:16:01.958Z,14.80
2022-10-31T17:21:04.193Z,14.70
2022-10-31T17:31:36.340Z,14.50
2022-10-31T17:36:34.352Z,14.40
2022-10-31T17:49:00.868Z,14.20
2022-10-31T17:51:29.571Z,14.10
2022-10-31T17:56:26.247Z,14.20
2022-10-31T18:01:26.359Z,13.90
2022-10-31T18:04:31.517Z,13.90
2022-10-31T18:11:57.217Z,13.70
2022-10-31T18:14:28.162Z,13.80
2022-10-31T18:16:56.327Z,13.70
2022-10-31T18:21:53.392Z,13.60
2022-10-31T18:31:53.504Z,13.60
2022-10-31T18:34:24.634Z,13.60
2022-10-31T18:39:23.251Z,13.40
2022-10-31T18:42:24.384Z,13.50
2022-10-31T18:54:49.857Z,15.70
2022-10-31T18:57:18.128Z,13.10
2022-10-31T19:02:17.701Z,13.10
2022-10-31T19:04:47.721Z,13.00
2022-10-31T19:07:16.007Z,12.80
2022-10-31T19:09:44.136Z,13.00
2022-10-31T19:12:12.328Z,12.90
2022-10-31T19:27:05.017Z,12.80
2022-10-31T19:54:21.090Z,12.40
2022-10-31T19:56:50.747Z,12.40
2022-10-31T20:01:47.352Z,12.70
2022-10-31T20:09:15.162Z,9.60
2022-10-31T20:11:44.672Z,12.20
2022-10-31T20:14:16.186Z,12.20
2022-10-31T20:19:12.968Z,12.10
2022-10-31T20:21:42.053Z,12.10
2022-10-31T20:24:12.313Z,12.10
2022-10-31T20:26:44.545Z,12.10
2022-10-31T20:29:16.961Z,12.10
2022-10-31T20:31:46.753Z,12.10
2022-10-31T20:46:47.453Z,11.90
2022-10-31T20:49:15.790Z,11.80
2022-10-31T20:54:14.838Z,11.70
2022-10-31T20:59:15.146Z,11.70
2022-10-31T21:01:44.816Z,11.70
2022-10-31T21:06:46.618Z,11.70
2022-10-31T21:19:12.933Z,11.50
2022-10-31T21:24:13.957Z,11.50
2022-10-31T21:26:44.239Z,11.50
2022-10-31T21:29:13.621Z,11.50
2022-10-31T21:31:43.046Z,11.50
2022-10-31T21:39:10.657Z,11.40
2022-10-31T21:41:40.160Z,11.40
2022-10-31T22:01:50.234Z,11.30
2022-10-31T22:11:48.180Z,11.10
2022-10-31T22:16:45.749Z,11.20
2022-10-31T22:21:44.350Z,11.20
2022-10-31T22:26:43.053Z,11.20
2022-10-31T22:29:15.511Z,11.10
2022-10-31T22:31:46.384Z,11.20
2022-10-31T22:34:16.209Z,11.20
2022-10-31T22:36:46.206Z,11.20
2022-10-31T22:49:14.168Z,11.00
2022-10-31T22:51:43.374Z,11.00
2022-10-31T22:54:16.229Z,11.00
2022-10-31T22:59:15.516Z,11.00
2022-10-31T23:01:45.992Z,11.00
2022-10-31T23:09:18.770Z,10.90
2022-10-31T23:14:20.848Z,10.90
2022-10-31T23:16:50.924Z,10.90
2022-10-31T23:19:22.805Z,10.90
2022-10-31T23:21:59.934Z,10.80
2022-10-31T23:24:36.800Z,10.80
2022-10-31T23:27:07.809Z,10.80
2022-10-31T23:32:06.034Z,10.70
